Time;durP1;ratioP1;P1;durP2;ratioP2;P2;SDS_P1;SDS_P2;PMS_P1;PMS_P2;Temp;Humidity;BMP_temperature;BMP_pressure;BME280_temperature;BME280_humidity;BME280_pressure;Samples;Min_cycle;Max_cycle;Signal;HPM_P1;HPM_P2
2022/03/07 00:02:07;;;;;;;24.63;17.35;;;0.10;93.90;;;;;;5111942;28;20077;-59
2022/03/07 00:04:33;;;;;;;24.55;17.10;;;0.00;94.00;;;;;;5112381;28;20019;-60
2022/03/07 00:06:59;;;;;;;23.02;17.60;;;0.00;94.00;;;;;;5112590;28;20474;-61
2022/03/07 00:09:25;;;;;;;25.63;17.48;;;0.00;94.10;;;;;;5112556;28;20028;-60
2022/03/07 00:11:51;;;;;;;22.27;17.35;;;-0.10;94.00;;;;;;5112954;28;20034;-59
2022/03/07 00:14:16;;;;;;;22.00;16.23;;;-0.10;94.80;;;;;;5113052;28;20055;-61
2022/03/07 00:16:42;;;;;;;23.70;16.05;;;0.00;94.50;;;;;;5112846;28;20043;-57
2022/03/07 00:19:08;;;;;;;24.35;17.05;;;-0.10;93.90;;;;;;5112416;28;20036;-58
2022/03/07 00:21:34;;;;;;;24.42;17.90;;;-0.10;94.10;;;;;;5112528;28;20028;-60
2022/03/07 00:24:00;;;;;;;26.25;17.63;;;0.00;94.20;;;;;;5112530;28;20030;-59
2022/03/07 00:26:26;;;;;;;23.55;16.50;;;0.00;94.40;;;;;;5094006;28;20020;-60
2022/03/07 00:28:52;;;;;;;20.50;16.55;;;0.00;94.50;;;;;;5112315;28;20027;-59
2022/03/07 00:31:20;;;;;;;21.73;17.02;;;0.00;93.60;;;;;;5094361;28;20034;-60
2022/03/07 00:33:45;;;;;;;24.67;16.50;;;0.00;93.60;;;;;;5111968;28;20031;-61
2022/03/07 00:36:11;;;;;;;21.65;15.98;;;0.10;93.40;;;;;;5111151;28;20031;-59
2022/03/07 00:38:37;;;;;;;31.48;16.92;;;0.10;93.20;;;;;;5111981;28;20713;-61
2022/03/07 00:41:03;;;;;;;23.20;16.67;;;0.00;93.00;;;;;;5094039;28;20108;-60
2022/03/07 00:43:29;;;;;;;23.55;16.73;;;0.00;93.10;;;;;;5112012;28;20061;-60
2022/03/07 00:45:55;;;;;;;34.60;20.17;;;0.00;93.30;;;;;;5112427;28;20059;-59
2022/03/07 00:48:21;;;;;;;22.15;17.45;;;0.00;94.10;;;;;;5111775;28;20027;-59
2022/03/07 00:50:50;;;;;;;26.00;17.98;;;-0.10;94.40;;;;;;5111878;28;20036;-60
2022/03/07 00:53:24;;;;;;;23.40;17.95;;;-0.10;95.20;;;;;;5112255;28;20023;-61
2022/03/07 00:55:52;;;;;;;26.42;17.38;;;-0.10;95.60;;;;;;5112324;28;20030;-57
2022/03/07 00:58:17;;;;;;;24.20;16.75;;;-0.10;95.20;;;;;;5111831;28;20051;-59
2022/03/07 01:00:44;;;;;;;22.88;16.50;;;-0.10;95.40;;;;;;5111908;28;20108;-59
2022/03/07 01:03:12;;;;;;;21.52;15.77;;;-0.10;95.30;;;;;;5111916;28;20032;-60
2022/03/07 01:05:39;;;;;;;22.90;17.02;;;-0.10;94.40;;;;;;5111863;28;20027;-61
2022/03/07 01:08:05;;;;;;;23.73;17.55;;;-0.10;95.20;;;;;;5112102;28;20020;-61
2022/03/07 01:10:31;;;;;;;25.92;18.00;;;-0.20;95.00;;;;;;5111787;28;20073;-61
2022/03/07 01:12:57;;;;;;;24.60;16.77;;;-0.20;95.20;;;;;;5111548;28;20047;-60
2022/03/07 01:15:22;;;;;;;24.92;16.67;;;-0.20;95.20;;;;;;5111823;28;20028;-61
2022/03/07 01:17:48;;;;;;;23.40;17.67;;;-0.20;95.10;;;;;;5110923;28;20071;-59
2022/03/07 01:20:14;;;;;;;25.35;16.98;;;-0.20;95.00;;;;;;5111668;28;20031;-60
2022/03/07 01:22:41;;;;;;;23.30;16.85;;;-0.20;95.10;;;;;;5111744;28;20509;-60
2022/03/07 01:25:07;;;;;;;24.30;17.63;;;-0.20;94.80;;;;;;5111705;28;20081;-59
2022/03/07 01:27:33;;;;;;;22.45;16.00;;;-0.20;94.90;;;;;;5111655;28;20027;-59
2022/03/07 01:29:59;;;;;;;21.08;15.55;;;-0.20;94.80;;;;;;5111283;28;20024;-60
2022/03/07 01:32:25;;;;;;;22.15;16.33;;;-0.20;94.70;;;;;;5111006;28;20374;-59
2022/03/07 01:34:51;;;;;;;21.30;16.85;;;-0.20;94.60;;;;;;5111834;28;20026;-60
2022/03/07 01:37:17;;;;;;;25.23;16.88;;;-0.30;94.40;;;;;;5111982;28;20374;-60
2022/03/07 01:39:43;;;;;;;22.65;15.65;;;-0.30;94.70;;;;;;5111235;28;20028;-60
2022/03/07 01:42:09;;;;;;;30.20;18.15;;;-0.30;94.80;;;;;;5110548;28;20023;-60
2022/03/07 01:44:36;;;;;;;21.20;16.33;;;-0.30;95.70;;;;;;5111455;28;20031;-59
2022/03/07 01:47:02;;;;;;;19.13;15.40;;;-0.40;95.20;;;;;;5111541;28;20023;-60
2022/03/07 01:49:28;;;;;;;20.10;16.92;;;-0.30;95.20;;;;;;5111569;28;20493;-61
2022/03/07 01:51:54;;;;;;;20.98;16.77;;;-0.30;94.90;;;;;;5111685;28;20110;-60
2022/03/07 01:54:21;;;;;;;23.25;17.20;;;-0.20;94.90;;;;;;5111064;28;20027;-61
2022/03/07 01:56:49;;;;;;;23.10;16.80;;;-0.30;94.20;;;;;;5111325;28;20037;-60
2022/03/07 01:59:17;;;;;;;25.02;16.70;;;-0.30;93.70;;;;;;5092347;28;20131;-59
2022/03/07 02:01:43;;;;;;;25.45;16.83;;;-0.40;94.40;;;;;;5114237;28;20022;-60
2022/03/07 02:04:09;;;;;;;20.52;15.85;;;-0.30;94.10;;;;;;5115083;28;20019;-59
2022/03/07 02:06:35;;;;;;;19.27;15.73;;;-0.30;94.40;;;;;;5115151;28;20020;-61
2022/03/07 02:09:01;;;;;;;20.90;15.77;;;-0.30;94.40;;;;;;5114130;28;20028;-60
2022/03/07 02:11:27;;;;;;;21.40;15.55;;;-0.30;94.20;;;;;;5114933;28;20514;-61
2022/03/07 02:13:53;;;;;;;21.65;16.27;;;-0.30;93.80;;;;;;5114404;28;20032;-61
2022/03/07 02:16:19;;;;;;;20.42;15.90;;;-0.30;93.70;;;;;;5114781;28;20020;-60
2022/03/07 02:18:45;;;;;;;22.25;15.45;;;-0.30;93.60;;;;;;5113834;28;20067;-58
2022/03/07 02:21:16;;;;;;;22.55;16.17;;;-0.20;93.20;;;;;;5115102;28;20055;-58
2022/03/07 02:23:43;;;;;;;22.52;16.02;;;-0.30;93.10;;;;;;5114329;28;20028;-61
2022/03/07 02:26:17;;;;;;;23.15;15.55;;;-0.30;93.00;;;;;;5113605;28;20019;-60
2022/03/07 02:28:45;;;;;;;21.88;15.85;;;-0.40;93.00;;;;;;5094919;28;20068;-61
2022/03/07 02:31:16;;;;;;;23.52;15.30;;;-0.40;93.40;;;;;;5095283;28;20019;-60
2022/03/07 02:33:41;;;;;;;23.75;16.92;;;-0.40;93.90;;;;;;5095207;28;20031;-59
2022/03/07 02:36:07;;;;;;;32.63;16.08;;;-0.40;94.40;;;;;;5096422;28;20024;-59
2022/03/07 02:38:33;;;;;;;20.70;16.17;;;-0.50;94.70;;;;;;5114620;28;20039;-59
2022/03/07 02:40:58;;;;;;;22.38;16.23;;;-0.40;94.70;;;;;;5114581;28;20035;-61
2022/03/07 02:43:24;;;;;;;18.70;14.88;;;-0.40;95.10;;;;;;5112648;28;20034;-58
2022/03/07 02:45:51;;;;;;;21.15;15.23;;;-0.40;94.70;;;;;;5114261;28;20031;-61
2022/03/07 02:48:18;;;;;;;19.98;15.38;;;-0.40;94.70;;;;;;5114685;28;20018;-59
2022/03/07 02:50:47;;;;;;;21.10;16.27;;;-0.40;94.60;;;;;;5095988;28;20092;-61
2022/03/07 02:53:13;;;;;;;23.45;16.17;;;-0.40;95.00;;;;;;5114564;28;20467;-60
2022/03/07 02:55:39;;;;;;;24.88;17.38;;;-0.40;94.70;;;;;;5113898;28;20052;-61
2022/03/07 02:58:05;;;;;;;20.58;16.13;;;-0.40;94.50;;;;;;5114167;28;20359;-59
2022/03/07 03:00:32;;;;;;;21.77;16.25;;;-0.40;94.50;;;;;;5113926;28;20098;-59
2022/03/07 03:02:57;;;;;;;24.08;17.02;;;-0.40;95.00;;;;;;5113942;28;20121;-60
2022/03/07 03:05:25;;;;;;;26.73;17.52;;;-0.50;94.90;;;;;;5112517;28;20032;-58
2022/03/07 03:07:51;;;;;;;26.92;17.33;;;-0.40;94.60;;;;;;5112542;28;20103;-61
2022/03/07 03:10:18;;;;;;;22.50;15.57;;;-0.50;94.70;;;;;;5094586;28;20020;-59
2022/03/07 03:12:44;;;;;;;25.35;17.65;;;-0.50;94.40;;;;;;5112299;28;20024;-60
2022/03/07 03:15:11;;;;;;;23.35;17.02;;;-0.50;94.50;;;;;;5112815;28;20037;-60
2022/03/07 03:17:41;;;;;;;20.17;15.32;;;-0.50;94.20;;;;;;5112853;28;20383;-61
2022/03/07 03:20:12;;;;;;;22.67;17.13;;;-0.50;94.30;;;;;;5112861;28;20031;-61
2022/03/07 03:22:42;;;;;;;24.55;15.63;;;-0.50;94.00;;;;;;5113101;28;20027;-60
2022/03/07 03:25:09;;;;;;;24.20;17.17;;;-0.50;94.10;;;;;;5113610;28;20076;-60
2022/03/07 03:27:36;;;;;;;21.33;17.08;;;-0.50;94.60;;;;;;5113432;28;20016;-63
2022/03/07 03:30:04;;;;;;;25.75;17.80;;;-0.50;94.60;;;;;;5113595;28;20027;-58
2022/03/07 03:32:30;;;;;;;23.58;17.60;;;-0.50;95.00;;;;;;5113415;28;20378;-61
2022/03/07 03:34:56;;;;;;;22.90;16.08;;;-0.50;94.50;;;;;;5113502;28;20019;-59
2022/03/07 03:37:24;;;;;;;24.35;16.85;;;-0.50;94.90;;;;;;5113326;28;20110;-60
2022/03/07 03:39:50;;;;;;;26.13;17.25;;;-0.50;94.90;;;;;;5113553;28;20593;-60
2022/03/07 03:42:16;;;;;;;26.58;18.70;;;-0.50;95.10;;;;;;5113449;28;20020;-59
2022/03/07 03:44:42;;;;;;;27.38;19.15;;;-0.50;95.50;;;;;;5113316;28;20516;-59
2022/03/07 03:47:08;;;;;;;34.67;18.48;;;-0.60;95.60;;;;;;5112213;28;20106;-60
2022/03/07 03:49:33;;;;;;;25.23;17.77;;;-0.60;95.70;;;;;;5113066;28;20412;-61
2022/03/07 03:51:59;;;;;;;28.10;18.83;;;-0.60;96.30;;;;;;5112807;28;20023;-61
2022/03/07 03:54:25;;;;;;;24.38;17.67;;;-0.50;96.40;;;;;;5112765;28;20028;-61
2022/03/07 03:56:51;;;;;;;26.98;19.10;;;-0.60;96.40;;;;;;5112977;28;20024;-60
2022/03/07 03:59:17;;;;;;;27.25;18.23;;;-0.60;96.90;;;;;;5112483;28;20493;-60
2022/03/07 04:01:44;;;;;;;27.42;19.50;;;-0.60;97.60;;;;;;5113055;28;20028;-59
2022/03/07 04:04:11;;;;;;;25.05;17.73;;;-0.70;97.70;;;;;;5112852;28;20016;-59
2022/03/07 04:06:37;;;;;;;27.77;18.83;;;-0.60;96.70;;;;;;5112353;28;20529;-59
2022/03/07 04:09:08;;;;;;;25.38;18.17;;;-0.60;96.50;;;;;;5112558;28;20157;-59
2022/03/07 04:11:34;;;;;;;25.42;17.02;;;-0.60;96.30;;;;;;5112420;28;20360;-60
2022/03/07 04:13:59;;;;;;;27.83;18.95;;;-0.60;96.40;;;;;;5112497;28;20019;-59
2022/03/07 04:16:25;;;;;;;29.13;19.20;;;-0.60;95.90;;;;;;5112624;28;20552;-60
2022/03/07 04:18:51;;;;;;;28.77;18.48;;;-0.60;96.20;;;;;;5112118;28;20044;-60
2022/03/07 04:21:16;;;;;;;28.88;18.15;;;-0.60;96.40;;;;;;5112600;28;20030;-60
2022/03/07 04:23:42;;;;;;;28.80;18.60;;;-0.60;96.20;;;;;;5111840;28;20027;-60
2022/03/07 04:26:09;;;;;;;26.73;18.00;;;-0.50;96.20;;;;;;5112660;28;20051;-60
2022/03/07 04:28:35;;;;;;;29.67;19.42;;;-0.60;96.10;;;;;;5112389;28;20027;-60
2022/03/07 04:31:00;;;;;;;31.30;19.60;;;-0.60;96.80;;;;;;5112407;28;20023;-60
2022/03/07 04:33:27;;;;;;;30.88;19.92;;;-0.60;96.20;;;;;;5112649;28;20073;-60
2022/03/07 04:35:52;;;;;;;27.67;19.42;;;-0.60;96.80;;;;;;5112115;28;20028;-60
2022/03/07 04:38:18;;;;;;;30.40;19.13;;;-0.70;97.30;;;;;;5093427;28;20030;-58
2022/03/07 04:40:44;;;;;;;30.08;19.80;;;-0.70;97.40;;;;;;5111721;28;20364;-60
2022/03/07 04:43:10;;;;;;;30.58;18.95;;;-0.70;97.50;;;;;;5112139;28;20070;-59
2022/03/07 04:45:35;;;;;;;30.17;19.77;;;-0.70;97.80;;;;;;5112326;28;20051;-60
2022/03/07 04:48:01;;;;;;;27.08;19.00;;;-0.70;98.10;;;;;;5112232;28;20088;-60
2022/03/07 04:50:26;;;;;;;31.13;20.48;;;-0.70;97.70;;;;;;5111877;28;20038;-60
2022/03/07 04:52:52;;;;;;;31.63;20.65;;;-0.70;97.70;;;;;;5111846;28;20077;-61
2022/03/07 04:55:18;;;;;;;29.45;19.65;;;-0.70;98.10;;;;;;5111752;28;20032;-60
2022/03/07 04:57:44;;;;;;;31.38;20.92;;;-0.80;98.40;;;;;;5111239;28;20163;-58
2022/03/07 05:00:11;;;;;;;29.77;19.48;;;-0.80;99.00;;;;;;5111958;28;20016;-61
2022/03/07 05:02:36;;;;;;;34.30;21.25;;;-0.80;99.00;;;;;;5111440;28;20051;-61
2022/03/07 05:05:02;;;;;;;33.35;19.73;;;-0.90;99.20;;;;;;5111442;28;20055;-60
2022/03/07 05:07:28;;;;;;;30.77;20.48;;;-0.90;99.20;;;;;;5092919;28;20016;-60
2022/03/07 05:09:54;;;;;;;34.00;21.80;;;-0.90;99.40;;;;;;5111695;28;20111;-58
2022/03/07 05:12:19;;;;;;;35.08;21.83;;;-1.00;99.80;;;;;;5112181;28;20050;-59
2022/03/07 05:14:45;;;;;;;34.15;22.80;;;-1.00;99.90;;;;;;5111800;28;20486;-60
2022/03/07 05:17:10;;;;;;;29.98;21.35;;;-1.00;99.90;;;;;;5111878;28;20031;-60
2022/03/07 05:19:36;;;;;;;31.83;20.77;;;-1.10;99.90;;;;;;5111675;28;20035;-60
2022/03/07 05:22:02;;;;;;;35.85;22.00;;;-1.00;99.90;;;;;;5111855;28;20028;-60
2022/03/07 05:24:28;;;;;;;34.45;21.33;;;-1.00;99.90;;;;;;5111857;28;20383;-61
2022/03/07 05:26:53;;;;;;;41.78;22.48;;;-1.10;99.90;;;;;;5111825;28;20467;-61
2022/03/07 05:29:19;;;;;;;34.72;22.05;;;-1.00;99.90;;;;;;5111817;28;20494;-61
2022/03/07 05:31:45;;;;;;;33.42;23.27;;;-1.10;99.90;;;;;;5111606;28;20062;-60
2022/03/07 05:34:11;;;;;;;29.77;19.90;;;-1.00;99.90;;;;;;5111767;28;20488;-59
2022/03/07 05:36:36;;;;;;;32.25;21.25;;;-1.00;99.90;;;;;;5114710;28;20023;-60
2022/03/07 05:39:03;;;;;;;39.90;24.27;;;-1.00;99.90;;;;;;5115656;28;20538;-59
2022/03/07 05:41:29;;;;;;;37.08;24.30;;;-1.00;99.90;;;;;;5097199;28;20262;-60
2022/03/07 05:43:55;;;;;;;41.08;23.40;;;-1.00;99.90;;;;;;5115892;28;20011;-60
2022/03/07 05:46:21;;;;;;;37.15;22.27;;;-1.00;99.90;;;;;;5115722;28;20035;-60
2022/03/07 05:48:47;;;;;;;37.13;23.60;;;-1.00;99.90;;;;;;5115324;28;20340;-59
2022/03/07 05:51:12;;;;;;;37.65;23.60;;;-1.00;99.90;;;;;;5115656;28;20035;-59
2022/03/07 05:53:38;;;;;;;35.38;22.13;;;-1.00;99.90;;;;;;5115475;28;20024;-59
2022/03/07 05:56:04;;;;;;;36.13;22.48;;;-1.00;99.90;;;;;;5115500;28;20026;-59
2022/03/07 05:58:30;;;;;;;35.20;23.65;;;-1.00;99.90;;;;;;5115422;28;20066;-60
2022/03/07 06:00:55;;;;;;;36.45;22.85;;;-1.00;99.90;;;;;;5115379;28;20409;-59
2022/03/07 06:03:21;;;;;;;35.03;22.02;;;-1.00;99.90;;;;;;5115292;28;20019;-60
2022/03/07 06:05:47;;;;;;;38.03;21.17;;;-0.90;99.90;;;;;;5115400;28;20381;-61
2022/03/07 06:08:12;;;;;;;34.28;22.52;;;-1.00;99.90;;;;;;5115306;28;20032;-60
2022/03/07 06:10:38;;;;;;;32.42;22.40;;;-1.00;99.90;;;;;;5115189;28;20110;-59
2022/03/07 06:13:04;;;;;;;41.97;23.65;;;-0.90;99.90;;;;;;5114997;28;20031;-60
2022/03/07 06:15:29;;;;;;;30.75;21.02;;;-0.90;99.90;;;;;;5115144;28;20024;-60
2022/03/07 06:17:57;;;;;;;36.25;22.20;;;-0.80;99.90;;;;;;5114990;28;20044;-59
2022/03/07 06:20:25;;;;;;;35.53;22.65;;;-0.80;99.90;;;;;;5114828;28;20080;-60
2022/03/07 06:22:51;;;;;;;32.30;21.60;;;-0.80;99.90;;;;;;5115143;28;20106;-59
2022/03/07 06:25:17;;;;;;;37.40;21.45;;;-0.70;99.90;;;;;;5115046;28;20135;-60
2022/03/07 06:27:42;;;;;;;40.75;22.35;;;-0.70;99.90;;;;;;5114950;28;20020;-60
2022/03/07 06:30:08;;;;;;;33.38;22.75;;;-0.70;99.90;;;;;;5114608;28;20531;-61
2022/03/07 06:32:35;;;;;;;34.15;22.00;;;-0.70;99.90;;;;;;5114781;28;20031;-60
2022/03/07 06:35:02;;;;;;;34.08;22.25;;;-0.70;99.90;;;;;;5114658;28;20016;-60
2022/03/07 06:37:27;;;;;;;38.67;22.10;;;-0.70;99.90;;;;;;5114671;28;20020;-60
2022/03/07 06:39:53;;;;;;;32.55;21.48;;;-0.60;99.90;;;;;;5114719;28;20091;-60
2022/03/07 06:42:19;;;;;;;32.33;20.80;;;-0.50;99.90;;;;;;5114619;28;20019;-60
2022/03/07 06:44:44;;;;;;;33.33;21.60;;;-0.50;99.50;;;;;;5114547;28;20026;-60
2022/03/07 06:47:11;;;;;;;33.00;20.60;;;-0.50;98.90;;;;;;5114018;28;20024;-60
2022/03/07 06:49:37;;;;;;;33.05;21.05;;;-0.50;99.10;;;;;;5113956;28;20023;-60
2022/03/07 06:52:03;;;;;;;30.05;20.95;;;-0.40;99.00;;;;;;5113769;28;20072;-59
2022/03/07 06:54:29;;;;;;;29.25;19.35;;;-0.30;98.40;;;;;;5113818;28;20019;-59
2022/03/07 06:56:55;;;;;;;29.27;20.40;;;-0.30;98.40;;;;;;5114406;28;20049;-60
2022/03/07 06:59:20;;;;;;;26.60;20.45;;;-0.30;98.40;;;;;;5114202;28;20366;-59
2022/03/07 07:01:46;;;;;;;31.77;23.35;;;-0.10;98.20;;;;;;5113997;28;20016;-59
2022/03/07 07:04:12;;;;;;;42.58;22.70;;;-0.10;98.20;;;;;;5114259;28;20045;-59
2022/03/07 07:06:37;;;;;;;31.98;21.13;;;0.00;98.00;;;;;;5114090;28;20024;-60
2022/03/07 07:09:03;;;;;;;34.42;20.00;;;0.10;97.30;;;;;;5114034;28;20016;-60
2022/03/07 07:11:29;;;;;;;27.00;19.92;;;0.10;97.70;;;;;;5113954;28;20114;-60
2022/03/07 07:13:55;;;;;;;26.40;20.33;;;0.10;97.20;;;;;;5113969;28;20502;-59
2022/03/07 07:16:20;;;;;;;30.95;20.55;;;0.00;97.60;;;;;;5113928;28;20344;-59
2022/03/07 07:18:46;;;;;;;30.80;21.20;;;0.20;97.50;;;;;;5113531;28;20134;-59
2022/03/07 07:21:12;;;;;;;236.45;31.20;;;0.20;97.50;;;;;;5113860;28;20447;-59
2022/03/07 07:23:38;;;;;;;542.60;48.08;;;0.20;97.10;;;;;;5113626;28;20024;-60
2022/03/07 07:26:05;;;;;;;146.35;23.45;;;0.10;97.10;;;;;;5113906;28;20606;-60
2022/03/07 07:28:30;;;;;;;68.28;21.00;;;0.10;97.20;;;;;;5113569;28;20094;-60
2022/03/07 07:30:56;;;;;;;30.73;21.05;;;0.10;97.70;;;;;;5113117;28;20481;-60
2022/03/07 07:33:22;;;;;;;33.03;21.33;;;0.10;97.70;;;;;;5112478;28;20020;-60
2022/03/07 07:35:47;;;;;;;115.15;24.33;;;0.20;97.00;;;;;;5112417;28;20398;-60
2022/03/07 07:38:13;;;;;;;47.50;23.52;;;0.20;97.60;;;;;;5112482;28;20462;-59
2022/03/07 07:40:39;;;;;;;58.83;21.95;;;0.30;97.20;;;;;;5112552;28;20077;-60
2022/03/07 07:43:05;;;;;;;30.95;21.02;;;0.40;97.40;;;;;;5094795;28;20464;-59
2022/03/07 07:45:31;;;;;;;37.30;20.23;;;0.50;97.30;;;;;;5112474;28;20065;-58
2022/03/07 07:47:58;;;;;;;34.90;21.20;;;0.50;97.10;;;;;;5112352;28;20019;-58
2022/03/07 07:50:24;;;;;;;88.43;23.35;;;0.40;97.40;;;;;;5112440;28;20027;-60
2022/03/07 07:52:50;;;;;;;33.58;18.70;;;0.50;97.00;;;;;;5112970;28;20051;-60
2022/03/07 07:55:16;;;;;;;31.10;20.70;;;0.60;96.90;;;;;;5113273;28;20051;-60
2022/03/07 07:57:41;;;;;;;27.73;20.92;;;0.50;96.80;;;;;;5112101;28;20092;-60
2022/03/07 08:00:09;;;;;;;27.80;19.45;;;0.60;96.40;;;;;;5113024;28;20478;-60
2022/03/07 08:02:35;;;;;;;34.50;20.90;;;0.70;97.00;;;;;;5093709;28;20474;-59
2022/03/07 08:05:01;;;;;;;28.08;19.25;;;0.70;96.10;;;;;;5112314;28;20027;-59
2022/03/07 08:07:27;;;;;;;29.15;20.10;;;0.80;96.30;;;;;;5111106;28;20024;-59
2022/03/07 08:09:53;;;;;;;28.90;20.33;;;0.70;96.20;;;;;;5112065;28;20027;-60
2022/03/07 08:12:19;;;;;;;25.30;18.42;;;0.90;96.00;;;;;;5111893;28;20023;-60
2022/03/07 08:14:45;;;;;;;31.17;19.88;;;0.80;95.10;;;;;;5112111;28;20028;-60
2022/03/07 08:17:11;;;;;;;31.98;19.60;;;0.80;95.50;;;;;;5111993;28;20027;-60
2022/03/07 08:19:37;;;;;;;25.77;19.00;;;1.00;95.50;;;;;;5112607;28;20152;-60
2022/03/07 08:22:03;;;;;;;28.73;20.08;;;1.00;95.00;;;;;;5112588;28;20016;-60
2022/03/07 08:24:29;;;;;;;29.23;20.27;;;0.90;94.50;;;;;;5112533;28;20047;-60
2022/03/07 08:26:55;;;;;;;33.10;22.67;;;0.70;94.90;;;;;;5112739;28;20016;-60
2022/03/07 08:29:20;;;;;;;33.33;21.85;;;1.00;95.20;;;;;;5112437;28;20512;-60
2022/03/07 08:31:46;;;;;;;27.30;19.15;;;1.00;94.70;;;;;;5112552;28;20024;-60
2022/03/07 08:34:12;;;;;;;37.95;20.63;;;1.10;93.80;;;;;;5112547;28;20080;-59
2022/03/07 08:36:38;;;;;;;28.88;20.38;;;1.00;93.80;;;;;;5111889;28;20027;-60
2022/03/07 08:39:04;;;;;;;29.80;20.60;;;1.00;93.70;;;;;;5110656;28;20050;-60
2022/03/07 08:41:29;;;;;;;30.52;21.52;;;1.00;93.40;;;;;;5112253;28;20027;-59
2022/03/07 08:43:55;;;;;;;25.70;18.67;;;1.00;93.30;;;;;;5111142;28;20019;-60
2022/03/07 08:46:22;;;;;;;30.55;22.50;;;1.00;92.60;;;;;;5112200;28;20019;-60
2022/03/07 08:48:48;;;;;;;32.38;21.23;;;0.90;93.00;;;;;;5093930;28;20035;-59
2022/03/07 08:51:13;;;;;;;27.85;19.27;;;1.00;92.80;;;;;;5110947;28;20031;-61
2022/03/07 08:53:39;;;;;;;26.60;19.80;;;0.90;92.60;;;;;;5111969;28;20038;-60
2022/03/07 08:56:05;;;;;;;62.45;31.20;;;1.10;91.60;;;;;;5112008;28;20501;-59
2022/03/07 08:58:30;;;;;;;29.40;21.13;;;1.00;91.50;;;;;;5111989;28;20110;-60
2022/03/07 09:00:56;;;;;;;24.10;19.90;;;1.20;91.30;;;;;;5111946;28;20032;-60
2022/03/07 09:03:22;;;;;;;31.55;24.55;;;0.90;90.50;;;;;;5112047;28;20019;-60
2022/03/07 09:05:47;;;;;;;27.35;20.45;;;1.00;90.60;;;;;;5110756;28;20024;-60
2022/03/07 09:08:13;;;;;;;29.15;22.33;;;0.90;90.20;;;;;;5112092;28;20027;-59
2022/03/07 09:10:39;;;;;;;27.38;20.27;;;0.90;88.70;;;;;;5111517;28;20038;-60
2022/03/07 09:13:05;;;;;;;35.45;21.60;;;0.90;89.50;;;;;;5112174;28;20042;-60
2022/03/07 09:15:30;;;;;;;60.67;29.83;;;0.90;89.40;;;;;;5111744;28;20111;-59
2022/03/07 09:17:56;;;;;;;27.40;19.77;;;0.90;89.90;;;;;;5111970;28;20433;-59
2022/03/07 09:20:22;;;;;;;29.88;22.30;;;1.10;89.20;;;;;;5111846;28;20366;-60
2022/03/07 09:22:48;;;;;;;27.60;19.77;;;1.20;86.70;;;;;;5111930;28;20031;-59
2022/03/07 09:25:14;;;;;;;28.23;19.92;;;1.20;85.50;;;;;;5111669;28;20020;-60
2022/03/07 09:27:42;;;;;;;31.55;20.75;;;1.20;85.40;;;;;;5111862;28;20034;-61
2022/03/07 09:30:09;;;;;;;29.40;21.23;;;1.40;85.00;;;;;;5111776;28;20659;-60
2022/03/07 09:32:35;;;;;;;27.85;19.05;;;1.20;83.00;;;;;;5093364;28;20067;-59
2022/03/07 09:35:00;;;;;;;28.80;21.17;;;1.30;84.20;;;;;;5111679;28;20059;-60
2022/03/07 09:37:26;;;;;;;24.63;19.48;;;1.00;83.10;;;;;;5111707;28;20020;-60
2022/03/07 09:39:52;;;;;;;23.48;18.58;;;1.00;83.20;;;;;;5111645;28;20046;-60
2022/03/07 09:42:17;;;;;;;28.73;18.98;;;1.10;81.90;;;;;;5111827;28;20344;-60
2022/03/07 09:44:43;;;;;;;23.48;18.35;;;1.00;81.60;;;;;;5111562;28;20107;-59
2022/03/07 09:47:09;;;;;;;26.17;19.15;;;1.10;81.80;;;;;;5111617;28;20477;-60
2022/03/07 09:49:35;;;;;;;23.95;18.25;;;1.30;80.20;;;;;;5111630;28;20069;-60
2022/03/07 09:52:01;;;;;;;27.40;19.25;;;1.20;80.60;;;;;;5111743;28;20016;-59
2022/03/07 09:54:27;;;;;;;23.08;17.75;;;1.20;79.00;;;;;;5111470;28;20027;-59
2022/03/07 09:56:54;;;;;;;27.02;18.40;;;1.40;78.80;;;;;;5111581;28;20068;-60
2022/03/07 09:59:21;;;;;;;30.02;19.50;;;1.30;77.90;;;;;;5093178;28;20031;-61
2022/03/07 10:02:00;;;;;;;23.63;16.40;;;1.20;78.10;;;;;;5111395;28;20566;-60
2022/03/07 10:04:26;;;;;;;25.80;19.67;;;1.40;76.20;;;;;;5092798;28;20085;-60
2022/03/07 10:06:52;;;;;;;25.40;18.85;;;1.60;77.50;;;;;;5111555;28;20453;-60
2022/03/07 10:09:25;;;;;;;28.90;18.65;;;1.40;77.40;;;;;;5111498;28;20122;-58
2022/03/07 10:11:53;;;;;;;44.70;23.83;;;1.40;74.30;;;;;;5092944;28;20111;-60
2022/03/07 10:14:32;;;;;;;23.88;18.42;;;1.30;73.40;;;;;;5111637;28;20028;-60
2022/03/07 10:16:58;;;;;;;26.10;16.20;;;1.30;75.10;;;;;;5111527;28;20027;-60
2022/03/07 10:19:23;;;;;;;24.70;17.83;;;1.60;74.80;;;;;;5110921;28;20043;-60
2022/03/07 10:21:50;;;;;;;25.13;16.35;;;1.60;75.00;;;;;;5112811;28;20538;-60
2022/03/07 10:24:17;;;;;;;19.80;15.07;;;1.80;74.30;;;;;;5114370;28;20546;-59
2022/03/07 10:26:43;;;;;;;23.10;16.92;;;1.80;73.70;;;;;;5114364;28;20099;-59
2022/03/07 10:29:09;;;;;;;19.85;16.42;;;2.00;72.60;;;;;;5114875;28;20039;-60
2022/03/07 10:31:35;;;;;;;26.02;16.05;;;2.00;70.70;;;;;;5114959;28;20375;-60
2022/03/07 10:34:07;;;;;;;25.17;17.30;;;2.00;69.30;;;;;;5116392;27;20513;-60
2022/03/07 10:36:35;;;;;;;23.23;16.35;;;2.10;72.10;;;;;;5135153;27;20023;-60
2022/03/07 10:39:04;;;;;;;23.02;17.35;;;2.30;72.00;;;;;;5135160;27;20027;-59
2022/03/07 10:41:48;;;;;;;22.10;16.75;;;2.60;69.90;;;;;;5116711;27;20031;-60
2022/03/07 10:44:35;;;;;;;22.13;16.10;;;2.40;68.30;;;;;;5135103;27;20030;-60
2022/03/07 10:47:13;;;;;;;21.60;16.75;;;2.60;69.80;;;;;;5134981;27;20015;-60
2022/03/07 10:49:54;;;;;;;23.35;17.23;;;2.90;68.30;;;;;;5134948;27;20023;-60
2022/03/07 10:52:21;;;;;;;22.95;17.42;;;2.60;65.50;;;;;;5135013;27;20046;-61
2022/03/07 10:54:49;;;;;;;24.55;18.70;;;2.40;64.70;;;;;;5135128;27;20031;-60
2022/03/07 10:57:16;;;;;;;22.20;17.73;;;2.60;67.40;;;;;;5134790;27;20122;-61
2022/03/07 10:59:42;;;;;;;25.20;18.23;;;3.10;65.60;;;;;;5134547;27;20110;-61
2022/03/07 11:02:10;;;;;;;20.20;15.80;;;3.40;65.50;;;;;;5134945;27;20459;-61
2022/03/07 11:04:38;;;;;;;22.42;17.27;;;3.30;62.20;;;;;;5134623;27;20454;-61
2022/03/07 11:07:05;;;;;;;23.90;16.55;;;3.70;64.00;;;;;;5134829;27;20038;-60
2022/03/07 11:09:31;;;;;;;21.88;18.23;;;4.10;61.70;;;;;;5134469;27;20636;-61
2022/03/07 11:11:57;;;;;;;34.70;16.75;;;4.80;61.10;;;;;;5134732;27;20054;-61
2022/03/07 11:14:25;;;;;;;18.83;15.90;;;4.70;57.40;;;;;;5133823;27;20042;-61
2022/03/07 11:16:56;;;;;;;25.15;16.85;;;5.40;58.10;;;;;;5133523;27;20050;-60
2022/03/07 11:19:26;;;;;;;22.17;15.77;;;6.10;56.10;;;;;;5133398;27;20054;-61
2022/03/07 11:21:55;;;;;;;20.88;16.42;;;6.50;53.30;;;;;;5133389;27;20027;-61
2022/03/07 11:24:24;;;;;;;21.83;15.27;;;7.00;50.50;;;;;;5134123;27;20016;-62
2022/03/07 11:26:52;;;;;;;21.10;16.55;;;6.60;48.20;;;;;;5115643;27;20019;-62
2022/03/07 11:29:18;;;;;;;18.25;14.95;;;6.60;48.80;;;;;;5134122;27;20027;-61
2022/03/07 11:31:45;;;;;;;19.10;15.32;;;6.30;47.90;;;;;;5134071;27;20034;-60
2022/03/07 11:34:12;;;;;;;20.08;16.42;;;7.10;47.90;;;;;;5114520;27;20031;-61
2022/03/07 11:36:45;;;;;;;18.90;15.20;;;7.30;47.10;;;;;;5133783;27;20026;-61
2022/03/07 11:39:12;;;;;;;27.92;16.92;;;7.80;45.30;;;;;;5134039;27;20019;-62
2022/03/07 11:41:39;;;;;;;17.92;15.25;;;7.90;45.70;;;;;;5133891;27;20106;-62
2022/03/07 11:44:06;;;;;;;19.17;16.55;;;8.30;44.30;;;;;;5134114;27;20019;-62
2022/03/07 11:46:35;;;;;;;24.17;15.90;;;9.20;42.40;;;;;;5133947;27;20019;-61
2022/03/07 11:49:02;;;;;;;23.23;16.17;;;8.80;42.80;;;;;;5115275;27;20023;-62
2022/03/07 11:51:30;;;;;;;17.92;16.00;;;9.10;42.70;;;;;;5133822;27;20031;-61
2022/03/07 11:53:57;;;;;;;31.55;15.20;;;9.50;40.30;;;;;;5133694;27;20015;-62
2022/03/07 11:56:35;;;;;;;21.35;13.63;;;9.60;39.10;;;;;;5133826;27;20015;-62
2022/03/07 11:59:05;;;;;;;29.00;15.57;;;10.70;39.30;;;;;;5133596;27;20080;-62
2022/03/07 12:01:31;;;;;;;17.70;15.68;;;11.30;37.10;;;;;;5133470;27;20076;-63
2022/03/07 12:04:14;;;;;;;19.35;16.00;;;11.30;35.60;;;;;;5133755;27;20049;-61
2022/03/07 12:06:48;;;;;;;16.90;15.02;;;10.90;34.40;;;;;;5133443;27;20064;-61
2022/03/07 12:09:32;;;;;;;17.02;15.23;;;11.70;34.90;;;;;;5132379;27;20034;-62
2022/03/07 12:12:21;;;;;;;22.17;16.17;;;12.00;36.00;;;;;;5132893;27;20019;-62
2022/03/07 12:14:47;;;;;;;19.13;14.50;;;11.80;34.20;;;;;;5133545;27;20062;-62
2022/03/07 12:17:18;;;;;;;18.02;15.05;;;12.40;33.20;;;;;;5114670;27;20477;-61
2022/03/07 12:19:52;;;;;;;23.67;14.52;;;12.00;32.90;;;;;;5133124;27;20359;-62
2022/03/07 12:22:17;;;;;;;19.27;14.93;;;11.50;33.20;;;;;;5133218;27;20047;-61
2022/03/07 12:24:45;;;;;;;17.00;14.00;;;11.50;33.50;;;;;;5133021;27;20402;-61
2022/03/07 12:27:11;;;;;;;17.67;14.88;;;12.20;32.60;;;;;;5133247;27;20012;-62
2022/03/07 12:29:43;;;;;;;16.30;14.15;;;11.80;33.60;;;;;;5133026;27;20102;-62